map of TID home
TID - Airport
Location
City:  Tiaret, Tiaret, Algeria
Name:Abdelhafid Boussouf Bou Chekif Airport
ICAO:DAOB
IATA:TID

Details
Type:Airport (Aerodrome, Airfield)
Use:Public/Civil, International (customs port of entry)
Latitude:3520'29"N (35.341389)
Longitude:128'01"E (1.466944)
Elevation:3245 ft (989 m)
Variation:0.72E (WMM2015 magnetic declination)
0.10 annual change
Runways:1
Longest:9843 × 148 ft (3000 × 45 m)

Time
Time Zone:UTC+1
Local Time:

Weather
METAR:DAOB 190600Z 24008KT 7000 FEW016 SCT023 10/09 Q1014
TAF:DAOB 190500Z 1906/2006 VRB02KT 7000 SCT023 SCT30 PROB40
TEMPO 1906/1912 FEW023TCU PROB30
TEMPO 1906/1909 3000 BR
BECMG 1908/1911 18012KT

Related Locations
Nearby:
Farthest:NZOP: 12142 mi / 19541 km
Opotiki, BOP, NZ

Find:

   beyond  
but within

Other Information
Maps:
NOTAMs:
Links:
Sources:

  
  • flag of Algeria
  

Sectional Chart

Flight Planning
at skyvector.com

Satellite Image

Google Maps Satellite view

 

Copyright © 2004-2018 Karl L. Swartz. All rights reserved.
The Great Circle Mapper name and logo are trademarks of the Great Circle Mapper.
All other trademarks mentioned herein belong to their respective owners.
Please see credits for attibutions and further copyright information.

  Follow gcmap on Facebook Follow gcmap on Twitter Follow gcmap on Google+ GCmap on LinkedIn

hCard Microformat

Geo Microformat